sensor_id;sensor_type;location;lat;lon;timestamp;pressure;altitude;pressure_sealevel;temperature;humidity
42519;BME280;28147;47.520;18.920;2022-12-10T00:00:35;96830.44;;;11.79;74.77
42519;BME280;28147;47.520;18.920;2022-12-10T00:03:00;96819.78;;;11.79;74.66
42519;BME280;28147;47.520;18.920;2022-12-10T00:05:26;96814.94;;;11.86;74.51
42519;BME280;28147;47.520;18.920;2022-12-10T00:07:52;96810.81;;;11.99;73.66
42519;BME280;28147;47.520;18.920;2022-12-10T00:10:17;96820.50;;;11.56;75.35
42519;BME280;28147;47.520;18.920;2022-12-10T00:12:43;96815.72;;;11.53;75.26
42519;BME280;28147;47.520;18.920;2022-12-10T00:15:08;96817.91;;;11.80;74.58
42519;BME280;28147;47.520;18.920;2022-12-10T00:17:34;96820.75;;;11.93;74.03
42519;BME280;28147;47.520;18.920;2022-12-10T00:19:59;96823.06;;;11.32;75.95
42519;BME280;28147;47.520;18.920;2022-12-10T00:22:24;96826.09;;;11.15;77.20
42519;BME280;28147;47.520;18.920;2022-12-10T00:24:50;96834.34;;;11.18;77.32
42519;BME280;28147;47.520;18.920;2022-12-10T00:27:15;96837.69;;;11.34;77.00
42519;BME280;28147;47.520;18.920;2022-12-10T00:29:41;96843.03;;;11.34;76.69
42519;BME280;28147;47.520;18.920;2022-12-10T00:32:06;96841.38;;;10.99;77.92
42519;BME280;28147;47.520;18.920;2022-12-10T00:34:32;96839.03;;;10.82;78.98
42519;BME280;28147;47.520;18.920;2022-12-10T00:36:57;96851.41;;;11.12;78.07
42519;BME280;28147;47.520;18.920;2022-12-10T00:39:22;96860.81;;;10.94;78.66
42519;BME280;28147;47.520;18.920;2022-12-10T00:41:48;96847.31;;;10.76;79.14
42519;BME280;28147;47.520;18.920;2022-12-10T00:44:14;96856.63;;;10.78;79.13
42519;BME280;28147;47.520;18.920;2022-12-10T00:46:40;96855.97;;;10.16;80.76
42519;BME280;28147;47.520;18.920;2022-12-10T00:49:05;96843.75;;;10.31;81.17
42519;BME280;28147;47.520;18.920;2022-12-10T00:51:31;96863.16;;;10.36;80.68
42519;BME280;28147;47.520;18.920;2022-12-10T00:53:58;96856.50;;;10.18;81.66
42519;BME280;28147;47.520;18.920;2022-12-10T00:56:32;96854.88;;;10.38;80.84
42519;BME280;28147;47.520;18.920;2022-12-10T00:58:59;96860.97;;;10.59;79.64
42519;BME280;28147;47.520;18.920;2022-12-10T01:01:34;96866.19;;;10.79;78.72
42519;BME280;28147;47.520;18.920;2022-12-10T01:04:04;96863.38;;;11.15;76.43
42519;BME280;28147;47.520;18.920;2022-12-10T01:06:33;96869.13;;;11.32;76.10
42519;BME280;28147;47.520;18.920;2022-12-10T01:09:01;96864.47;;;11.09;76.11
42519;BME280;28147;47.520;18.920;2022-12-10T01:11:30;96870.84;;;11.18;76.18
42519;BME280;28147;47.520;18.920;2022-12-10T01:13:56;96866.16;;;11.44;74.97
42519;BME280;28147;47.520;18.920;2022-12-10T01:16:23;96876.41;;;11.16;75.84
42519;BME280;28147;47.520;18.920;2022-12-10T01:18:49;96875.50;;;11.36;75.46
42519;BME280;28147;47.520;18.920;2022-12-10T01:21:17;96883.16;;;11.04;75.87
42519;BME280;28147;47.520;18.920;2022-12-10T01:23:44;96886.91;;;11.03;76.33
42519;BME280;28147;47.520;18.920;2022-12-10T01:26:13;96885.13;;;11.32;75.33
42519;BME280;28147;47.520;18.920;2022-12-10T01:28:40;96880.13;;;11.26;75.33
42519;BME280;28147;47.520;18.920;2022-12-10T01:31:28;96873.47;;;11.23;75.13
42519;BME280;28147;47.520;18.920;2022-12-10T01:33:54;96880.75;;;11.07;75.97
42519;BME280;28147;47.520;18.920;2022-12-10T01:36:29;96880.31;;;11.34;74.34
42519;BME280;28147;47.520;18.920;2022-12-10T01:38:54;96880.72;;;11.57;73.84
42519;BME280;28147;47.520;18.920;2022-12-10T01:41:21;96874.84;;;11.55;73.66
42519;BME280;28147;47.520;18.920;2022-12-10T01:43:56;96869.53;;;11.55;73.43
42519;BME280;28147;47.520;18.920;2022-12-10T01:46:25;96872.28;;;11.39;73.75
42519;BME280;28147;47.520;18.920;2022-12-10T01:48:50;96871.53;;;11.34;74.02
42519;BME280;28147;47.520;18.920;2022-12-10T01:51:16;96874.78;;;11.26;74.41
42519;BME280;28147;47.520;18.920;2022-12-10T01:53:43;96889.00;;;11.50;73.28
42519;BME280;28147;47.520;18.920;2022-12-10T01:56:10;96895.88;;;11.61;72.87
42519;BME280;28147;47.520;18.920;2022-12-10T01:58:36;96899.34;;;11.17;73.47
42519;BME280;28147;47.520;18.920;2022-12-10T02:01:55;96909.66;;;11.29;73.39
42519;BME280;28147;47.520;18.920;2022-12-10T02:09:34;96911.63;;;11.08;73.78
42519;BME280;28147;47.520;18.920;2022-12-10T02:17:24;96918.66;;;11.38;71.85
42519;BME280;28147;47.520;18.920;2022-12-10T02:20:05;96929.13;;;11.25;72.77
42519;BME280;28147;47.520;18.920;2022-12-10T02:26:04;96920.41;;;11.09;72.90
42519;BME280;28147;47.520;18.920;2022-12-10T02:31:05;96915.66;;;11.01;72.36
42519;BME280;28147;47.520;18.920;2022-12-10T02:33:35;96919.69;;;10.83;72.76
42519;BME280;28147;47.520;18.920;2022-12-10T02:36:03;96923.06;;;11.09;72.15
42519;BME280;28147;47.520;18.920;2022-12-10T02:38:32;96931.06;;;11.14;71.58
42519;BME280;28147;47.520;18.920;2022-12-10T02:41:04;96924.69;;;11.05;71.72
42519;BME280;28147;47.520;18.920;2022-12-10T02:43:32;96923.00;;;11.24;70.95
42519;BME280;28147;47.520;18.920;2022-12-10T02:45:59;96921.41;;;11.23;70.61
42519;BME280;28147;47.520;18.920;2022-12-10T02:48:28;96909.50;;;11.10;71.09
42519;BME280;28147;47.520;18.920;2022-12-10T02:50:53;96916.13;;;11.13;70.93
42519;BME280;28147;47.520;18.920;2022-12-10T02:53:19;96909.44;;;11.20;70.55
42519;BME280;28147;47.520;18.920;2022-12-10T02:58:30;96911.38;;;11.05;70.45
42519;BME280;28147;47.520;18.920;2022-12-10T03:01:06;96910.19;;;11.31;69.89
42519;BME280;28147;47.520;18.920;2022-12-10T03:03:50;96917.34;;;11.36;69.11
42519;BME280;28147;47.520;18.920;2022-12-10T03:06:33;96919.75;;;11.32;68.96
42519;BME280;28147;47.520;18.920;2022-12-10T03:09:22;96921.25;;;10.94;69.96
42519;BME280;28147;47.520;18.920;2022-12-10T03:11:57;96908.19;;;10.98;69.47
42519;BME280;28147;47.520;18.920;2022-12-10T03:14:28;96926.78;;;11.18;69.16
42519;BME280;28147;47.520;18.920;2022-12-10T03:17:01;96941.16;;;11.12;69.22
42519;BME280;28147;47.520;18.920;2022-12-10T03:19:42;96953.75;;;10.86;69.24
42519;BME280;28147;47.520;18.920;2022-12-10T03:22:12;96951.69;;;10.73;68.71
42519;BME280;28147;47.520;18.920;2022-12-10T03:24:40;96951.97;;;10.51;69.92
42519;BME280;28147;47.520;18.920;2022-12-10T03:27:09;96937.59;;;10.52;69.38
42519;BME280;28147;47.520;18.920;2022-12-10T03:29:40;96961.56;;;10.46;68.78
42519;BME280;28147;47.520;18.920;2022-12-10T03:32:06;96957.56;;;10.49;68.86
42519;BME280;28147;47.520;18.920;2022-12-10T03:34:32;96962.63;;;10.51;68.82
42519;BME280;28147;47.520;18.920;2022-12-10T03:36:58;96944.28;;;10.29;69.07
42519;BME280;28147;47.520;18.920;2022-12-10T03:39:24;96955.44;;;10.26;68.93
42519;BME280;28147;47.520;18.920;2022-12-10T03:41:50;96949.59;;;10.34;69.16
42519;BME280;28147;47.520;18.920;2022-12-10T03:44:27;96953.06;;;10.29;69.15
42519;BME280;28147;47.520;18.920;2022-12-10T03:46:53;96950.63;;;10.22;69.09
42519;BME280;28147;47.520;18.920;2022-12-10T03:49:18;96958.34;;;10.04;69.67
42519;BME280;28147;47.520;18.920;2022-12-10T03:51:44;96966.31;;;9.98;69.56
42519;BME280;28147;47.520;18.920;2022-12-10T03:54:09;96963.13;;;10.07;69.45
42519;BME280;28147;47.520;18.920;2022-12-10T03:56:34;96957.81;;;10.02;69.23
42519;BME280;28147;47.520;18.920;2022-12-10T03:59:00;96957.81;;;10.02;69.15
42519;BME280;28147;47.520;18.920;2022-12-10T04:01:25;96957.88;;;10.27;68.70
42519;BME280;28147;47.520;18.920;2022-12-10T04:03:50;96952.75;;;9.95;69.52
42519;BME280;28147;47.520;18.920;2022-12-10T04:06:18;96944.78;;;10.10;69.11
42519;BME280;28147;47.520;18.920;2022-12-10T04:08:44;96941.88;;;10.12;69.10
42519;BME280;28147;47.520;18.920;2022-12-10T04:11:10;96950.38;;;10.19;68.57
42519;BME280;28147;47.520;18.920;2022-12-10T04:13:37;96960.94;;;9.58;70.49
42519;BME280;28147;47.520;18.920;2022-12-10T04:16:22;96946.63;;;9.74;70.10
42519;BME280;28147;47.520;18.920;2022-12-10T04:19:12;96966.81;;;9.80;70.00
42519;BME280;28147;47.520;18.920;2022-12-10T04:21:39;96970.56;;;9.94;68.98
42519;BME280;28147;47.520;18.920;2022-12-10T04:24:25;96976.34;;;9.61;71.05
42519;BME280;28147;47.520;18.920;2022-12-10T04:27:19;96974.28;;;10.04;69.92
42519;BME280;28147;47.520;18.920;2022-12-10T04:29:45;96967.66;;;10.01;69.64
42519;BME280;28147;47.520;18.920;2022-12-10T04:32:11;96972.69;;;9.92;69.75
42519;BME280;28147;47.520;18.920;2022-12-10T04:34:36;96975.34;;;9.92;70.35
42519;BME280;28147;47.520;18.920;2022-12-10T04:37:03;96970.84;;;9.93;70.32
42519;BME280;28147;47.520;18.920;2022-12-10T04:39:28;96971.63;;;9.93;70.52
42519;BME280;28147;47.520;18.920;2022-12-10T04:41:54;96972.16;;;9.95;70.02
42519;BME280;28147;47.520;18.920;2022-12-10T04:44:20;96975.09;;;9.94;69.82
42519;BME280;28147;47.520;18.920;2022-12-10T04:46:46;96982.81;;;10.21;69.12
42519;BME280;28147;47.520;18.920;2022-12-10T04:49:12;96971.13;;;10.17;69.12
42519;BME280;28147;47.520;18.920;2022-12-10T04:51:38;96970.28;;;9.96;69.57
42519;BME280;28147;47.520;18.920;2022-12-10T04:54:04;96970.84;;;10.18;68.94
42519;BME280;28147;47.520;18.920;2022-12-10T04:56:30;96970.03;;;10.03;68.90
42519;BME280;28147;47.520;18.920;2022-12-10T04:58:56;96963.59;;;9.58;70.06
42519;BME280;28147;47.520;18.920;2022-12-10T05:01:22;96964.97;;;9.81;70.05
42519;BME280;28147;47.520;18.920;2022-12-10T05:03:47;96953.28;;;9.82;68.98
42519;BME280;28147;47.520;18.920;2022-12-10T05:06:14;96955.09;;;9.66;69.51
42519;BME280;28147;47.520;18.920;2022-12-10T05:08:41;96959.91;;;9.79;68.84
42519;BME280;28147;47.520;18.920;2022-12-10T05:11:12;96959.91;;;9.59;68.88
42519;BME280;28147;47.520;18.920;2022-12-10T05:13:39;96969.25;;;9.82;67.98
42519;BME280;28147;47.520;18.920;2022-12-10T05:16:07;96983.88;;;9.89;70.78
42519;BME280;28147;47.520;18.920;2022-12-10T05:18:34;96978.28;;;10.67;68.33
42519;BME280;28147;47.520;18.920;2022-12-10T05:21:01;96984.41;;;10.53;66.20
42519;BME280;28147;47.520;18.920;2022-12-10T05:23:26;96981.16;;;9.69;67.69
42519;BME280;28147;47.520;18.920;2022-12-10T05:26:02;96993.69;;;9.79;67.61
42519;BME280;28147;47.520;18.920;2022-12-10T05:28:30;97000.09;;;10.18;66.76
42519;BME280;28147;47.520;18.920;2022-12-10T05:30:56;96995.31;;;10.00;67.46
42519;BME280;28147;47.520;18.920;2022-12-10T05:33:22;96999.78;;;9.74;67.94
42519;BME280;28147;47.520;18.920;2022-12-10T05:36:01;97002.47;;;9.16;70.31
42519;BME280;28147;47.520;18.920;2022-12-10T05:38:30;96996.28;;;8.90;71.74
42519;BME280;28147;47.520;18.920;2022-12-10T05:41:04;96988.31;;;9.63;69.90
42519;BME280;28147;47.520;18.920;2022-12-10T05:43:30;96996.81;;;9.55;69.68
42519;BME280;28147;47.520;18.920;2022-12-10T05:46:00;97007.34;;;9.30;70.28
42519;BME280;28147;47.520;18.920;2022-12-10T05:48:26;97006.06;;;8.90;71.97
42519;BME280;28147;47.520;18.920;2022-12-10T05:50:51;97000.44;;;9.29;71.34
42519;BME280;28147;47.520;18.920;2022-12-10T05:53:17;96999.47;;;9.55;70.30
42519;BME280;28147;47.520;18.920;2022-12-10T05:55:43;97003.16;;;9.49;69.87
42519;BME280;28147;47.520;18.920;2022-12-10T05:58:09;97004.75;;;9.45;69.79
42519;BME280;28147;47.520;18.920;2022-12-10T06:00:34;97005.09;;;9.74;69.83
42519;BME280;28147;47.520;18.920;2022-12-10T06:03:00;97002.47;;;9.89;69.11
42519;BME280;28147;47.520;18.920;2022-12-10T06:05:25;97003.81;;;10.02;68.64
42519;BME280;28147;47.520;18.920;2022-12-10T06:07:51;97007.53;;;10.06;68.60
42519;BME280;28147;47.520;18.920;2022-12-10T06:10:17;97008.84;;;10.04;68.02
42519;BME280;28147;47.520;18.920;2022-12-10T06:12:42;97022.16;;;10.09;67.73
42519;BME280;28147;47.520;18.920;2022-12-10T06:15:08;97017.66;;;10.09;67.69
42519;BME280;28147;47.520;18.920;2022-12-10T06:17:33;97028.81;;;10.21;67.21
42519;BME280;28147;47.520;18.920;2022-12-10T06:19:59;97034.09;;;9.96;67.52
42519;BME280;28147;47.520;18.920;2022-12-10T06:22:24;97031.97;;;9.98;67.16
42519;BME280;28147;47.520;18.920;2022-12-10T06:24:49;97032.53;;;10.10;67.06
42519;BME280;28147;47.520;18.920;2022-12-10T06:27:15;97032.78;;;9.98;67.79
42519;BME280;28147;47.520;18.920;2022-12-10T06:29:40;97036.53;;;10.13;67.27
42519;BME280;28147;47.520;18.920;2022-12-10T06:32:06;97047.69;;;10.05;67.39
42519;BME280;28147;47.520;18.920;2022-12-10T06:34:31;97056.44;;;9.90;67.69
42519;BME280;28147;47.520;18.920;2022-12-10T06:36:56;97054.84;;;9.99;67.04
42519;BME280;28147;47.520;18.920;2022-12-10T06:39:22;97047.94;;;9.93;67.51
42519;BME280;28147;47.520;18.920;2022-12-10T06:41:47;97044.50;;;10.08;66.46
42519;BME280;28147;47.520;18.920;2022-12-10T06:44:13;97043.69;;;10.02;65.96
42519;BME280;28147;47.520;18.920;2022-12-10T06:46:40;97044.19;;;9.89;66.54
42519;BME280;28147;47.520;18.920;2022-12-10T06:49:06;97052.53;;;10.48;68.18
42519;BME280;28147;47.520;18.920;2022-12-10T06:51:32;97038.38;;;10.22;66.48
42519;BME280;28147;47.520;18.920;2022-12-10T06:53:57;97046.94;;;10.30;65.86
42519;BME280;28147;47.520;18.920;2022-12-10T06:56:23;97035.72;;;10.17;65.30
42519;BME280;28147;47.520;18.920;2022-12-10T06:58:48;97033.28;;;9.95;64.90
42519;BME280;28147;47.520;18.920;2022-12-10T07:01:19;97035.19;;;10.00;64.50
42519;BME280;28147;47.520;18.920;2022-12-10T07:03:55;97036.25;;;10.09;64.72
42519;BME280;28147;47.520;18.920;2022-12-10T07:06:21;97039.69;;;9.99;64.03
42519;BME280;28147;47.520;18.920;2022-12-10T07:08:47;97051.38;;;9.98;63.67
42519;BME280;28147;47.520;18.920;2022-12-10T07:11:15;97046.03;;;9.83;64.66
42519;BME280;28147;47.520;18.920;2022-12-10T07:13:41;97046.28;;;9.71;65.31
42519;BME280;28147;47.520;18.920;2022-12-10T07:18:39;97021.03;;;9.74;64.20
42519;BME280;28147;47.520;18.920;2022-12-10T07:21:22;97033.34;;;10.01;63.74
42519;BME280;28147;47.520;18.920;2022-12-10T07:23:50;97038.66;;;10.01;63.74
42519;BME280;28147;47.520;18.920;2022-12-10T07:26:15;97034.38;;;9.89;64.40
42519;BME280;28147;47.520;18.920;2022-12-10T07:28:41;97018.69;;;10.03;64.07
42519;BME280;28147;47.520;18.920;2022-12-10T07:31:08;97005.38;;;9.83;64.29
42519;BME280;28147;47.520;18.920;2022-12-10T07:33:35;97004.84;;;9.86;64.33
42519;BME280;28147;47.520;18.920;2022-12-10T07:36:06;96994.16;;;9.65;65.24
42519;BME280;28147;47.520;18.920;2022-12-10T07:38:31;96996.34;;;9.79;64.20
42519;BME280;28147;47.520;18.920;2022-12-10T07:40:57;96999.00;;;9.84;64.04
42519;BME280;28147;47.520;18.920;2022-12-10T07:43:22;97010.38;;;9.64;64.15
42519;BME280;28147;47.520;18.920;2022-12-10T07:45:48;97024.75;;;9.73;64.35
42519;BME280;28147;47.520;18.920;2022-12-10T07:48:13;97029.44;;;9.40;65.99
42519;BME280;28147;47.520;18.920;2022-12-10T07:50:40;97034.47;;;9.47;66.35
42519;BME280;28147;47.520;18.920;2022-12-10T07:53:05;97027.84;;;9.49;64.61
42519;BME280;28147;47.520;18.920;2022-12-10T07:55:31;97044.88;;;9.54;64.48
42519;BME280;28147;47.520;18.920;2022-12-10T07:57:56;97045.53;;;9.23;65.30
42519;BME280;28147;47.520;18.920;2022-12-10T08:00:22;97054.94;;;9.46;64.67
42519;BME280;28147;47.520;18.920;2022-12-10T08:02:47;97052.81;;;9.48;65.06
42519;BME280;28147;47.520;18.920;2022-12-10T08:05:13;97034.22;;;9.48;65.54
42519;BME280;28147;47.520;18.920;2022-12-10T08:07:38;97030.94;;;9.21;65.95
42519;BME280;28147;47.520;18.920;2022-12-10T08:10:04;97025.53;;;9.06;66.14
42519;BME280;28147;47.520;18.920;2022-12-10T08:12:30;97028.84;;;8.86;66.52
42519;BME280;28147;47.520;18.920;2022-12-10T08:14:55;97023.03;;;9.41;65.99
42519;BME280;28147;47.520;18.920;2022-12-10T08:17:20;97026.50;;;9.47;65.46
42519;BME280;28147;47.520;18.920;2022-12-10T08:19:46;97023.84;;;9.42;65.81
42519;BME280;28147;47.520;18.920;2022-12-10T08:22:11;97021.97;;;9.37;66.02
42519;BME280;28147;47.520;18.920;2022-12-10T08:24:37;97024.41;;;9.44;65.61
42519;BME280;28147;47.520;18.920;2022-12-10T08:27:02;97035.31;;;9.58;65.24
42519;BME280;28147;47.520;18.920;2022-12-10T08:29:28;97041.19;;;9.65;65.06
42519;BME280;28147;47.520;18.920;2022-12-10T08:31:53;97029.78;;;9.64;64.85
42519;BME280;28147;47.520;18.920;2022-12-10T08:34:18;97021.59;;;9.86;64.07
42519;BME280;28147;47.520;18.920;2022-12-10T08:36:45;97025.59;;;9.89;64.28
42519;BME280;28147;47.520;18.920;2022-12-10T08:39:11;97042.53;;;9.72;63.55
42519;BME280;28147;47.520;18.920;2022-12-10T08:41:41;97036.88;;;9.48;63.13
42519;BME280;28147;47.520;18.920;2022-12-10T08:44:06;97041.41;;;9.53;63.48
42519;BME280;28147;47.520;18.920;2022-12-10T08:46:32;97037.28;;;9.88;63.19
42519;BME280;28147;47.520;18.920;2022-12-10T08:48:57;97044.44;;;9.82;62.25
42519;BME280;28147;47.520;18.920;2022-12-10T08:51:23;97051.00;;;9.59;63.42
42519;BME280;28147;47.520;18.920;2022-12-10T08:53:49;97049.94;;;9.60;64.08
42519;BME280;28147;47.520;18.920;2022-12-10T08:56:14;97058.41;;;8.62;65.89
42519;BME280;28147;47.520;18.920;2022-12-10T08:58:40;97064.00;;;8.34;68.79
42519;BME280;28147;47.520;18.920;2022-12-10T09:01:08;97067.84;;;8.21;68.29
42519;BME280;28147;47.520;18.920;2022-12-10T09:03:34;97059.19;;;8.95;67.16
42519;BME280;28147;47.520;18.920;2022-12-10T09:06:08;97055.28;;;9.13;67.12
42519;BME280;28147;47.520;18.920;2022-12-10T09:08:34;97059.16;;;9.37;66.32
42519;BME280;28147;47.520;18.920;2022-12-10T09:11:12;97061.97;;;9.83;65.12
42519;BME280;28147;47.520;18.920;2022-12-10T09:13:38;97072.03;;;9.71;64.75
42519;BME280;28147;47.520;18.920;2022-12-10T09:16:04;97069.09;;;9.67;65.06
42519;BME280;28147;47.520;18.920;2022-12-10T09:18:30;97075.53;;;9.24;65.85
42519;BME280;28147;47.520;18.920;2022-12-10T09:20:55;97078.03;;;9.46;66.29
42519;BME280;28147;47.520;18.920;2022-12-10T09:23:21;97068.75;;;9.43;65.18
42519;BME280;28147;47.520;18.920;2022-12-10T09:25:46;97055.81;;;9.67;65.07
42519;BME280;28147;47.520;18.920;2022-12-10T09:28:12;97059.03;;;9.74;64.92
42519;BME280;28147;47.520;18.920;2022-12-10T09:30:37;97062.56;;;10.01;64.24
42519;BME280;28147;47.520;18.920;2022-12-10T09:33:03;97065.44;;;9.79;64.85
42519;BME280;28147;47.520;18.920;2022-12-10T09:35:28;97056.63;;;9.73;65.06
42519;BME280;28147;47.520;18.920;2022-12-10T09:37:53;97057.22;;;9.95;64.88
42519;BME280;28147;47.520;18.920;2022-12-10T09:40:36;97062.28;;;10.07;64.34
42519;BME280;28147;47.520;18.920;2022-12-10T09:45:58;97041.31;;;10.01;64.46
42519;BME280;28147;47.520;18.920;2022-12-10T09:51:29;97020.00;;;9.90;64.45
42519;BME280;28147;47.520;18.920;2022-12-10T09:53:57;97007.25;;;9.87;64.87
42519;BME280;28147;47.520;18.920;2022-12-10T09:56:35;96996.56;;;9.77;64.46
42519;BME280;28147;47.520;18.920;2022-12-10T09:59:15;96998.75;;;9.90;64.17
42519;BME280;28147;47.520;18.920;2022-12-10T10:01:43;96998.72;;;9.80;64.55
42519;BME280;28147;47.520;18.920;2022-12-10T10:04:09;96996.31;;;9.73;64.58
42519;BME280;28147;47.520;18.920;2022-12-10T10:06:35;96988.38;;;9.99;63.99
42519;BME280;28147;47.520;18.920;2022-12-10T10:09:02;96986.78;;;9.78;64.56
42519;BME280;28147;47.520;18.920;2022-12-10T10:11:31;96978.16;;;9.40;65.11
42519;BME280;28147;47.520;18.920;2022-12-10T10:14:12;96971.38;;;10.00;66.37
42519;BME280;28147;47.520;18.920;2022-12-10T10:19:42;96984.72;;;9.17;65.63
42519;BME280;28147;47.520;18.920;2022-12-10T10:22:10;96983.38;;;9.14;66.38
42519;BME280;28147;47.520;18.920;2022-12-10T10:24:39;96984.28;;;8.83;67.47
42519;BME280;28147;47.520;18.920;2022-12-10T10:27:30;96995.41;;;8.42;69.21
42519;BME280;28147;47.520;18.920;2022-12-10T10:29:58;96992.59;;;8.59;68.09
42519;BME280;28147;47.520;18.920;2022-12-10T10:32:28;96993.56;;;8.85;67.68
42519;BME280;28147;47.520;18.920;2022-12-10T10:35:30;97005.69;;;8.71;68.30
42519;BME280;28147;47.520;18.920;2022-12-10T10:38:01;96995.16;;;8.86;67.81
42519;BME280;28147;47.520;18.920;2022-12-10T10:40:33;96997.16;;;8.64;67.76
42519;BME280;28147;47.520;18.920;2022-12-10T10:43:04;97000.25;;;8.50;68.51
42519;BME280;28147;47.520;18.920;2022-12-10T10:48:09;97002.19;;;8.01;70.03
42519;BME280;28147;47.520;18.920;2022-12-10T10:55:53;97005.00;;;8.21;70.18
42519;BME280;28147;47.520;18.920;2022-12-10T10:58:20;97003.44;;;8.20;69.47
42519;BME280;28147;47.520;18.920;2022-12-10T11:00:59;97000.31;;;8.28;69.23
42519;BME280;28147;47.520;18.920;2022-12-10T11:03:26;96998.75;;;8.33;70.33
42519;BME280;28147;47.520;18.920;2022-12-10T11:05:54;96986.47;;;8.53;69.38
42519;BME280;28147;47.520;18.920;2022-12-10T11:08:21;96991.38;;;8.72;69.29
42519;BME280;28147;47.520;18.920;2022-12-10T11:10:58;96983.03;;;9.00;67.75
42519;BME280;28147;47.520;18.920;2022-12-10T11:13:29;96988.97;;;9.18;67.24
42519;BME280;28147;47.520;18.920;2022-12-10T11:16:00;96990.03;;;9.17;67.66
42519;BME280;28147;47.520;18.920;2022-12-10T11:21:17;96977.50;;;9.12;67.69
42519;BME280;28147;47.520;18.920;2022-12-10T11:23:46;96978.97;;;9.50;65.98
42519;BME280;28147;47.520;18.920;2022-12-10T11:35:12;96959.34;;;8.89;68.80
42519;BME280;28147;47.520;18.920;2022-12-10T11:50:49;96918.88;;;9.14;68.08
42519;BME280;28147;47.520;18.920;2022-12-10T11:53:52;96911.69;;;9.14;67.74
42519;BME280;28147;47.520;18.920;2022-12-10T12:01:31;96896.31;;;9.32;67.14
42519;BME280;28147;47.520;18.920;2022-12-10T12:14:59;96904.84;;;9.39;65.53
42519;BME280;28147;47.520;18.920;2022-12-10T12:22:39;96896.09;;;9.38;65.54
42519;BME280;28147;47.520;18.920;2022-12-10T12:25:29;96884.31;;;9.04;67.18
42519;BME280;28147;47.520;18.920;2022-12-10T12:30:31;96880.13;;;9.23;66.59
42519;BME280;28147;47.520;18.920;2022-12-10T12:33:32;96875.84;;;9.12;65.93
42519;BME280;28147;47.520;18.920;2022-12-10T12:36:19;96877.44;;;9.13;66.36
42519;BME280;28147;47.520;18.920;2022-12-10T12:42:01;96887.56;;;9.26;66.37
42519;BME280;28147;47.520;18.920;2022-12-10T12:50:21;96896.09;;;9.33;66.77
42519;BME280;28147;47.520;18.920;2022-12-10T12:52:53;96890.72;;;9.18;66.87
42519;BME280;28147;47.520;18.920;2022-12-10T13:00:40;96894.19;;;9.23;66.05
42519;BME280;28147;47.520;18.920;2022-12-10T13:03:36;96896.53;;;9.05;66.83
42519;BME280;28147;47.520;18.920;2022-12-10T13:06:37;96893.91;;;9.10;65.83
42519;BME280;28147;47.520;18.920;2022-12-10T13:11:46;96911.47;;;8.63;67.88
42519;BME280;28147;47.520;18.920;2022-12-10T13:14:35;96919.25;;;8.80;67.68
42519;BME280;28147;47.520;18.920;2022-12-10T13:22:54;96913.41;;;8.78;67.86
42519;BME280;28147;47.520;18.920;2022-12-10T13:25:37;96915.81;;;8.80;67.57
42519;BME280;28147;47.520;18.920;2022-12-10T13:31:13;96906.06;;;8.95;66.88
42519;BME280;28147;47.520;18.920;2022-12-10T13:37:30;96905.50;;;8.88;68.03
42519;BME280;28147;47.520;18.920;2022-12-10T13:39:36;96908.59;;;8.70;68.27
42519;BME280;28147;47.520;18.920;2022-12-10T13:50:16;96904.91;;;8.76;67.45
42519;BME280;28147;47.520;18.920;2022-12-10T13:58:26;96890.13;;;8.90;66.17
42519;BME280;28147;47.520;18.920;2022-12-10T14:06:21;96880.03;;;8.97;65.91
42519;BME280;28147;47.520;18.920;2022-12-10T14:08:55;96875.97;;;8.74;67.45
42519;BME280;28147;47.520;18.920;2022-12-10T14:11:26;96880.47;;;8.69;66.84
42519;BME280;28147;47.520;18.920;2022-12-10T14:13:55;96883.84;;;8.59;67.02
42519;BME280;28147;47.520;18.920;2022-12-10T14:16:23;96881.56;;;8.78;66.89
42519;BME280;28147;47.520;18.920;2022-12-10T14:18:55;96890.09;;;8.85;66.12
42519;BME280;28147;47.520;18.920;2022-12-10T14:21:22;96893.72;;;8.69;67.43
42519;BME280;28147;47.520;18.920;2022-12-10T14:23:52;96891.88;;;8.64;67.20
42519;BME280;28147;47.520;18.920;2022-12-10T14:26:20;96886.84;;;8.68;66.73
42519;BME280;28147;47.520;18.920;2022-12-10T14:28:54;96889.97;;;8.60;67.66
42519;BME280;28147;47.520;18.920;2022-12-10T14:31:28;96897.47;;;8.73;67.29
42519;BME280;28147;47.520;18.920;2022-12-10T14:33:59;96885.19;;;8.57;66.64
42519;BME280;28147;47.520;18.920;2022-12-10T14:36:31;96882.28;;;8.63;67.09
42519;BME280;28147;47.520;18.920;2022-12-10T14:38:59;96887.59;;;8.63;67.16
42519;BME280;28147;47.520;18.920;2022-12-10T14:41:27;96881.69;;;8.51;67.61
42519;BME280;28147;47.520;18.920;2022-12-10T14:43:54;96882.28;;;8.63;67.42
42519;BME280;28147;47.520;18.920;2022-12-10T14:46:24;96883.38;;;8.67;66.79
42519;BME280;28147;47.520;18.920;2022-12-10T14:48:51;96879.84;;;8.51;67.13
42519;BME280;28147;47.520;18.920;2022-12-10T14:51:24;96882.50;;;8.51;67.70
42519;BME280;28147;47.520;18.920;2022-12-10T14:53:52;96882.19;;;8.38;68.00
42519;BME280;28147;47.520;18.920;2022-12-10T14:56:23;96882.47;;;8.41;68.10
42519;BME280;28147;47.520;18.920;2022-12-10T14:58:56;96882.91;;;8.75;67.23
42519;BME280;28147;47.520;18.920;2022-12-10T15:01:31;96885.00;;;8.78;66.16
42519;BME280;28147;47.520;18.920;2022-12-10T15:04:00;96882.38;;;8.36;68.16
42519;BME280;28147;47.520;18.920;2022-12-10T15:06:26;96879.53;;;8.43;68.44
42519;BME280;28147;47.520;18.920;2022-12-10T15:08:54;96878.63;;;8.69;66.91
42519;BME280;28147;47.520;18.920;2022-12-10T15:11:21;96875.63;;;8.56;67.50
42519;BME280;28147;47.520;18.920;2022-12-10T15:13:51;96873.44;;;8.42;68.44
42519;BME280;28147;47.520;18.920;2022-12-10T15:16:42;96870.28;;;8.45;67.61
42519;BME280;28147;47.520;18.920;2022-12-10T15:21:50;96871.69;;;8.21;67.99
42519;BME280;28147;47.520;18.920;2022-12-10T15:24:19;96874.78;;;8.08;69.24